sensor_id;sensor_type;location;lat;lon;timestamp;temperature;humidity
8888;DHT22;4480;52.370;9.748;2023-07-13T00:01:27;18.40;86.70
8888;DHT22;4480;52.370;9.748;2023-07-13T00:03:54;18.40;87.10
8888;DHT22;4480;52.370;9.748;2023-07-13T00:06:21;18.40;87.50
8888;DHT22;4480;52.370;9.748;2023-07-13T00:08:48;18.40;88.10
8888;DHT22;4480;52.370;9.748;2023-07-13T00:11:15;18.40;88.70
8888;DHT22;4480;52.370;9.748;2023-07-13T00:13:42;18.40;90.00
8888;DHT22;4480;52.370;9.748;2023-07-13T00:16:11;18.50;90.10
8888;DHT22;4480;52.370;9.748;2023-07-13T00:18:39;18.50;90.50
8888;DHT22;4480;52.370;9.748;2023-07-13T00:21:06;18.50;91.00
8888;DHT22;4480;52.370;9.748;2023-07-13T00:23:34;18.50;91.50
8888;DHT22;4480;52.370;9.748;2023-07-13T00:26:01;18.50;92.00
8888;DHT22;4480;52.370;9.748;2023-07-13T00:28:28;18.50;92.70
8888;DHT22;4480;52.370;9.748;2023-07-13T00:30:55;18.50;93.30
8888;DHT22;4480;52.370;9.748;2023-07-13T00:33:23;18.50;93.90
8888;DHT22;4480;52.370;9.748;2023-07-13T00:35:50;18.50;94.50
8888;DHT22;4480;52.370;9.748;2023-07-13T00:38:16;18.50;94.90
8888;DHT22;4480;52.370;9.748;2023-07-13T00:40:43;18.50;95.20
8888;DHT22;4480;52.370;9.748;2023-07-13T00:43:14;18.50;95.60
8888;DHT22;4480;52.370;9.748;2023-07-13T00:46:11;18.40;96.00
8888;DHT22;4480;52.370;9.748;2023-07-13T00:48:40;18.40;96.40
8888;DHT22;4480;52.370;9.748;2023-07-13T00:51:07;18.40;96.90
8888;DHT22;4480;52.370;9.748;2023-07-13T00:53:35;18.30;97.20
8888;DHT22;4480;52.370;9.748;2023-07-13T00:56:03;18.30;97.50
8888;DHT22;4480;52.370;9.748;2023-07-13T00:58:30;18.20;97.80
8888;DHT22;4480;52.370;9.748;2023-07-13T01:00:57;18.20;98.20
8888;DHT22;4480;52.370;9.748;2023-07-13T01:03:24;18.10;98.50
8888;DHT22;4480;52.370;9.748;2023-07-13T01:05:52;18.10;98.80
8888;DHT22;4480;52.370;9.748;2023-07-13T01:08:20;18.00;99.30
8888;DHT22;4480;52.370;9.748;2023-07-13T01:10:54;17.90;99.30
8888;DHT22;4480;52.370;9.748;2023-07-13T01:13:21;17.90;99.70
8888;DHT22;4480;52.370;9.748;2023-07-13T01:15:50;17.80;99.90
8888;DHT22;4480;52.370;9.748;2023-07-13T01:18:20;17.80;99.90
8888;DHT22;4480;52.370;9.748;2023-07-13T01:20:53;17.70;99.90
8888;DHT22;4480;52.370;9.748;2023-07-13T01:23:20;17.60;99.90
8888;DHT22;4480;52.370;9.748;2023-07-13T01:25:46;17.60;99.90
8888;DHT22;4480;52.370;9.748;2023-07-13T01:28:13;17.50;99.90
8888;DHT22;4480;52.370;9.748;2023-07-13T01:30:43;17.50;99.90
8888;DHT22;4480;52.370;9.748;2023-07-13T01:33:11;17.40;99.90
8888;DHT22;4480;52.370;9.748;2023-07-13T01:35:38;17.40;99.90
8888;DHT22;4480;52.370;9.748;2023-07-13T01:38:07;17.30;99.90
8888;DHT22;4480;52.370;9.748;2023-07-13T01:40:34;17.30;99.90
8888;DHT22;4480;52.370;9.748;2023-07-13T01:43:02;17.30;99.90
8888;DHT22;4480;52.370;9.748;2023-07-13T01:45:30;17.20;99.90
8888;DHT22;4480;52.370;9.748;2023-07-13T01:47:58;17.20;99.90
8888;DHT22;4480;52.370;9.748;2023-07-13T01:50:25;17.20;99.90
8888;DHT22;4480;52.370;9.748;2023-07-13T01:52:51;17.20;99.90
8888;DHT22;4480;52.370;9.748;2023-07-13T01:55:20;17.20;99.90
8888;DHT22;4480;52.370;9.748;2023-07-13T01:57:47;17.20;99.90
8888;DHT22;4480;52.370;9.748;2023-07-13T02:00:14;17.20;99.90
8888;DHT22;4480;52.370;9.748;2023-07-13T02:02:41;17.20;99.90
8888;DHT22;4480;52.370;9.748;2023-07-13T02:05:09;17.20;99.90
8888;DHT22;4480;52.370;9.748;2023-07-13T02:07:36;17.20;99.90
8888;DHT22;4480;52.370;9.748;2023-07-13T02:10:04;17.10;99.90
8888;DHT22;4480;52.370;9.748;2023-07-13T02:12:32;17.10;99.90
8888;DHT22;4480;52.370;9.748;2023-07-13T02:14:59;17.10;99.90
8888;DHT22;4480;52.370;9.748;2023-07-13T02:17:26;17.00;99.90
8888;DHT22;4480;52.370;9.748;2023-07-13T02:19:53;17.10;99.90
8888;DHT22;4480;52.370;9.748;2023-07-13T02:22:20;17.00;99.90
8888;DHT22;4480;52.370;9.748;2023-07-13T02:24:48;17.00;99.90
8888;DHT22;4480;52.370;9.748;2023-07-13T02:27:14;17.00;99.90
8888;DHT22;4480;52.370;9.748;2023-07-13T02:29:43;16.90;99.90
8888;DHT22;4480;52.370;9.748;2023-07-13T02:32:09;16.90;99.90
8888;DHT22;4480;52.370;9.748;2023-07-13T02:34:36;16.90;99.90
8888;DHT22;4480;52.370;9.748;2023-07-13T02:37:04;16.90;99.90
8888;DHT22;4480;52.370;9.748;2023-07-13T02:39:30;16.80;99.90
8888;DHT22;4480;52.370;9.748;2023-07-13T02:41:58;16.80;99.90
8888;DHT22;4480;52.370;9.748;2023-07-13T02:44:25;16.80;99.90
8888;DHT22;4480;52.370;9.748;2023-07-13T02:46:53;16.80;99.90
8888;DHT22;4480;52.370;9.748;2023-07-13T02:49:20;16.70;99.90
8888;DHT22;4480;52.370;9.748;2023-07-13T02:51:47;16.70;99.90
8888;DHT22;4480;52.370;9.748;2023-07-13T02:54:14;16.70;99.90
8888;DHT22;4480;52.370;9.748;2023-07-13T02:56:41;16.70;99.90
8888;DHT22;4480;52.370;9.748;2023-07-13T02:59:09;16.60;99.90
8888;DHT22;4480;52.370;9.748;2023-07-13T03:01:35;16.60;99.90
8888;DHT22;4480;52.370;9.748;2023-07-13T03:04:04;16.60;99.90
8888;DHT22;4480;52.370;9.748;2023-07-13T03:06:31;16.50;99.90
8888;DHT22;4480;52.370;9.748;2023-07-13T03:08:58;16.60;99.90
8888;DHT22;4480;52.370;9.748;2023-07-13T03:11:25;16.60;99.90
8888;DHT22;4480;52.370;9.748;2023-07-13T03:13:52;16.60;99.90
8888;DHT22;4480;52.370;9.748;2023-07-13T03:16:19;16.60;99.90
8888;DHT22;4480;52.370;9.748;2023-07-13T03:18:46;16.60;99.90
8888;DHT22;4480;52.370;9.748;2023-07-13T03:21:15;16.60;99.90
8888;DHT22;4480;52.370;9.748;2023-07-13T03:23:42;16.70;99.90
8888;DHT22;4480;52.370;9.748;2023-07-13T03:26:12;16.60;99.90
8888;DHT22;4480;52.370;9.748;2023-07-13T03:28:39;16.70;99.90
8888;DHT22;4480;52.370;9.748;2023-07-13T03:31:08;16.70;99.90
8888;DHT22;4480;52.370;9.748;2023-07-13T03:33:36;16.70;99.90
8888;DHT22;4480;52.370;9.748;2023-07-13T03:36:03;16.70;99.90
8888;DHT22;4480;52.370;9.748;2023-07-13T03:38:32;16.70;99.90
8888;DHT22;4480;52.370;9.748;2023-07-13T03:40:59;16.70;99.90
8888;DHT22;4480;52.370;9.748;2023-07-13T03:43:26;16.70;99.90
8888;DHT22;4480;52.370;9.748;2023-07-13T03:45:53;16.70;99.90
8888;DHT22;4480;52.370;9.748;2023-07-13T03:48:20;16.70;99.90
8888;DHT22;4480;52.370;9.748;2023-07-13T03:50:47;16.70;99.90
8888;DHT22;4480;52.370;9.748;2023-07-13T03:53:14;16.70;99.90
8888;DHT22;4480;52.370;9.748;2023-07-13T03:55:43;16.70;99.90
8888;DHT22;4480;52.370;9.748;2023-07-13T03:58:28;16.80;99.90
8888;DHT22;4480;52.370;9.748;2023-07-13T04:00:56;16.90;99.90
8888;DHT22;4480;52.370;9.748;2023-07-13T04:03:23;17.00;99.90
8888;DHT22;4480;52.370;9.748;2023-07-13T04:05:50;17.20;99.90
8888;DHT22;4480;52.370;9.748;2023-07-13T04:08:17;17.40;99.90
8888;DHT22;4480;52.370;9.748;2023-07-13T04:11:55;17.80;99.50
8888;DHT22;4480;52.370;9.748;2023-07-13T04:14:22;18.00;99.00
8888;DHT22;4480;52.370;9.748;2023-07-13T04:16:49;18.30;98.20
8888;DHT22;4480;52.370;9.748;2023-07-13T04:19:17;18.50;97.50
8888;DHT22;4480;52.370;9.748;2023-07-13T04:21:43;18.70;96.70
8888;DHT22;4480;52.370;9.748;2023-07-13T04:24:11;18.90;95.70
8888;DHT22;4480;52.370;9.748;2023-07-13T04:26:38;18.90;94.90
8888;DHT22;4480;52.370;9.748;2023-07-13T04:29:07;18.80;94.30
8888;DHT22;4480;52.370;9.748;2023-07-13T04:31:34;18.70;94.30
8888;DHT22;4480;52.370;9.748;2023-07-13T04:34:01;18.60;94.40
8888;DHT22;4480;52.370;9.748;2023-07-13T04:36:28;18.50;94.00
8888;DHT22;4480;52.370;9.748;2023-07-13T04:38:55;18.40;93.90
8888;DHT22;4480;52.370;9.748;2023-07-13T04:41:22;18.40;93.80
8888;DHT22;4480;52.370;9.748;2023-07-13T04:43:48;18.30;93.70
8888;DHT22;4480;52.370;9.748;2023-07-13T04:46:17;18.20;93.80
8888;DHT22;4480;52.370;9.748;2023-07-13T04:48:44;18.20;94.20
8888;DHT22;4480;52.370;9.748;2023-07-13T04:51:11;18.40;94.20
8888;DHT22;4480;52.370;9.748;2023-07-13T04:53:38;18.80;93.70
8888;DHT22;4480;52.370;9.748;2023-07-13T04:56:05;19.10;92.70
8888;DHT22;4480;52.370;9.748;2023-07-13T04:58:33;19.50;91.50
8888;DHT22;4480;52.370;9.748;2023-07-13T05:01:00;19.90;90.10
8888;DHT22;4480;52.370;9.748;2023-07-13T05:03:29;20.20;87.70
8888;DHT22;4480;52.370;9.748;2023-07-13T05:05:57;20.50;85.00
8888;DHT22;4480;52.370;9.748;2023-07-13T05:08:25;20.60;82.70
8888;DHT22;4480;52.370;9.748;2023-07-13T05:10:52;20.90;80.50
8888;DHT22;4480;52.370;9.748;2023-07-13T05:13:19;21.10;78.50
8888;DHT22;4480;52.370;9.748;2023-07-13T05:15:47;21.30;76.90
8888;DHT22;4480;52.370;9.748;2023-07-13T05:18:14;21.50;75.10
8888;DHT22;4480;52.370;9.748;2023-07-13T05:20:42;21.60;73.10
8888;DHT22;4480;52.370;9.748;2023-07-13T05:23:09;21.60;71.60
8888;DHT22;4480;52.370;9.748;2023-07-13T05:25:36;21.70;70.70
8888;DHT22;4480;52.370;9.748;2023-07-13T05:28:03;21.90;69.80
8888;DHT22;4480;52.370;9.748;2023-07-13T05:30:29;22.10;68.10
8888;DHT22;4480;52.370;9.748;2023-07-13T05:32:56;22.20;67.40
8888;DHT22;4480;52.370;9.748;2023-07-13T05:35:23;22.10;65.20
8888;DHT22;4480;52.370;9.748;2023-07-13T05:37:51;21.60;65.30
8888;DHT22;4480;52.370;9.748;2023-07-13T05:40:18;21.10;66.10
8888;DHT22;4480;52.370;9.748;2023-07-13T05:42:44;20.80;67.00
8888;DHT22;4480;52.370;9.748;2023-07-13T05:45:11;20.70;67.90
8888;DHT22;4480;52.370;9.748;2023-07-13T05:47:38;20.70;68.20
8888;DHT22;4480;52.370;9.748;2023-07-13T05:50:06;20.80;68.00
8888;DHT22;4480;52.370;9.748;2023-07-13T05:52:33;20.80;68.40
8888;DHT22;4480;52.370;9.748;2023-07-13T05:55:01;21.00;68.30
8888;DHT22;4480;52.370;9.748;2023-07-13T05:57:28;21.20;68.10
8888;DHT22;4480;52.370;9.748;2023-07-13T05:59:55;21.40;67.70
8888;DHT22;4480;52.370;9.748;2023-07-13T06:02:22;21.70;67.00
8888;DHT22;4480;52.370;9.748;2023-07-13T06:04:49;21.90;65.90
8888;DHT22;4480;52.370;9.748;2023-07-13T06:07:15;22.00;65.30
8888;DHT22;4480;52.370;9.748;2023-07-13T06:09:42;22.00;64.60
8888;DHT22;4480;52.370;9.748;2023-07-13T06:12:10;21.90;63.80
8888;DHT22;4480;52.370;9.748;2023-07-13T06:14:37;21.70;64.10
8888;DHT22;4480;52.370;9.748;2023-07-13T06:17:04;21.70;64.20
8888;DHT22;4480;52.370;9.748;2023-07-13T06:19:31;21.80;64.00
8888;DHT22;4480;52.370;9.748;2023-07-13T06:21:58;21.70;62.90
8888;DHT22;4480;52.370;9.748;2023-07-13T06:24:25;21.40;62.80
8888;DHT22;4480;52.370;9.748;2023-07-13T06:26:52;21.20;63.20
8888;DHT22;4480;52.370;9.748;2023-07-13T06:29:20;21.10;63.30
8888;DHT22;4480;52.370;9.748;2023-07-13T06:31:47;21.00;63.30
8888;DHT22;4480;52.370;9.748;2023-07-13T06:34:14;20.90;63.60
8888;DHT22;4480;52.370;9.748;2023-07-13T06:36:40;20.90;63.60
8888;DHT22;4480;52.370;9.748;2023-07-13T06:39:07;20.90;63.60
8888;DHT22;4480;52.370;9.748;2023-07-13T06:41:34;20.90;63.80
8888;DHT22;4480;52.370;9.748;2023-07-13T06:44:01;20.90;63.60
8888;DHT22;4480;52.370;9.748;2023-07-13T06:46:29;21.00;63.30
8888;DHT22;4480;52.370;9.748;2023-07-13T06:48:56;21.10;63.20
8888;DHT22;4480;52.370;9.748;2023-07-13T06:51:23;21.20;62.90
8888;DHT22;4480;52.370;9.748;2023-07-13T06:53:51;21.30;62.40
8888;DHT22;4480;52.370;9.748;2023-07-13T06:56:18;21.40;62.20
8888;DHT22;4480;52.370;9.748;2023-07-13T06:58:44;21.50;62.30
8888;DHT22;4480;52.370;9.748;2023-07-13T07:01:11;21.50;62.10
8888;DHT22;4480;52.370;9.748;2023-07-13T07:03:39;21.60;61.80
8888;DHT22;4480;52.370;9.748;2023-07-13T07:06:13;21.60;61.70
8888;DHT22;4480;52.370;9.748;2023-07-13T07:08:40;21.70;61.60
8888;DHT22;4480;52.370;9.748;2023-07-13T07:11:09;21.60;60.60
8888;DHT22;4480;52.370;9.748;2023-07-13T07:13:36;21.50;60.70
8888;DHT22;4480;52.370;9.748;2023-07-13T07:16:03;21.40;60.70
8888;DHT22;4480;52.370;9.748;2023-07-13T07:18:30;21.40;60.50
8888;DHT22;4480;52.370;9.748;2023-07-13T07:20:58;21.40;60.30
8888;DHT22;4480;52.370;9.748;2023-07-13T07:23:25;21.60;60.00
8888;DHT22;4480;52.370;9.748;2023-07-13T07:25:52;21.80;59.40
8888;DHT22;4480;52.370;9.748;2023-07-13T07:28:19;22.10;58.90
8888;DHT22;4480;52.370;9.748;2023-07-13T07:30:46;22.20;58.20
8888;DHT22;4480;52.370;9.748;2023-07-13T07:33:13;22.20;57.60
8888;DHT22;4480;52.370;9.748;2023-07-13T07:35:42;22.30;57.40
8888;DHT22;4480;52.370;9.748;2023-07-13T07:38:10;22.30;57.00
8888;DHT22;4480;52.370;9.748;2023-07-13T07:40:37;22.20;57.00
8888;DHT22;4480;52.370;9.748;2023-07-13T07:43:05;22.10;57.10
8888;DHT22;4480;52.370;9.748;2023-07-13T07:45:31;22.10;57.20
8888;DHT22;4480;52.370;9.748;2023-07-13T07:47:58;22.10;57.20
8888;DHT22;4480;52.370;9.748;2023-07-13T07:50:25;22.00;57.20
8888;DHT22;4480;52.370;9.748;2023-07-13T07:52:52;22.00;57.10
8888;DHT22;4480;52.370;9.748;2023-07-13T07:55:20;22.20;57.70
8888;DHT22;4480;52.370;9.748;2023-07-13T07:57:47;22.30;56.70
8888;DHT22;4480;52.370;9.748;2023-07-13T08:00:15;22.40;56.60
8888;DHT22;4480;52.370;9.748;2023-07-13T08:02:42;22.60;56.50
8888;DHT22;4480;52.370;9.748;2023-07-13T08:05:10;22.80;56.20
8888;DHT22;4480;52.370;9.748;2023-07-13T08:07:37;22.70;56.10
8888;DHT22;4480;52.370;9.748;2023-07-13T08:10:05;22.70;56.10
8888;DHT22;4480;52.370;9.748;2023-07-13T08:12:35;22.70;55.90
8888;DHT22;4480;52.370;9.748;2023-07-13T08:15:03;22.40;55.90
8888;DHT22;4480;52.370;9.748;2023-07-13T08:17:30;22.20;56.30
8888;DHT22;4480;52.370;9.748;2023-07-13T08:19:57;22.10;56.70
8888;DHT22;4480;52.370;9.748;2023-07-13T08:22:24;21.90;57.10
8888;DHT22;4480;52.370;9.748;2023-07-13T08:24:51;21.80;57.40
8888;DHT22;4480;52.370;9.748;2023-07-13T08:27:22;21.80;57.40
8888;DHT22;4480;52.370;9.748;2023-07-13T08:29:50;21.80;57.40
8888;DHT22;4480;52.370;9.748;2023-07-13T08:32:18;21.90;57.50
8888;DHT22;4480;52.370;9.748;2023-07-13T08:34:45;21.90;57.50
8888;DHT22;4480;52.370;9.748;2023-07-13T08:37:12;21.90;57.40
8888;DHT22;4480;52.370;9.748;2023-07-13T08:39:38;21.80;57.70
8888;DHT22;4480;52.370;9.748;2023-07-13T08:42:11;21.60;57.90
8888;DHT22;4480;52.370;9.748;2023-07-13T08:44:46;21.70;58.10
8888;DHT22;4480;52.370;9.748;2023-07-13T08:47:21;21.80;58.10
8888;DHT22;4480;52.370;9.748;2023-07-13T08:49:50;21.80;58.10
8888;DHT22;4480;52.370;9.748;2023-07-13T08:52:26;21.80;58.30
8888;DHT22;4480;52.370;9.748;2023-07-13T08:54:57;21.60;58.50
8888;DHT22;4480;52.370;9.748;2023-07-13T08:57:31;21.60;58.90
8888;DHT22;4480;52.370;9.748;2023-07-13T08:59:59;21.60;59.10
8888;DHT22;4480;52.370;9.748;2023-07-13T09:02:33;21.70;59.20
8888;DHT22;4480;52.370;9.748;2023-07-13T09:05:10;21.80;58.80
8888;DHT22;4480;52.370;9.748;2023-07-13T09:07:47;22.10;58.70
8888;DHT22;4480;52.370;9.748;2023-07-13T09:10:20;22.40;58.20
8888;DHT22;4480;52.370;9.748;2023-07-13T09:12:58;22.50;57.80
8888;DHT22;4480;52.370;9.748;2023-07-13T09:15:28;22.60;57.80
8888;DHT22;4480;52.370;9.748;2023-07-13T09:18:03;22.80;57.30
8888;DHT22;4480;52.370;9.748;2023-07-13T09:20:35;22.90;56.70
8888;DHT22;4480;52.370;9.748;2023-07-13T09:23:11;22.80;56.30
8888;DHT22;4480;52.370;9.748;2023-07-13T09:25:39;22.60;56.60
8888;DHT22;4480;52.370;9.748;2023-07-13T09:28:12;22.40;57.00
8888;DHT22;4480;52.370;9.748;2023-07-13T09:30:46;22.50;57.40
8888;DHT22;4480;52.370;9.748;2023-07-13T09:33:20;22.60;57.20
8888;DHT22;4480;52.370;9.748;2023-07-13T09:35:48;22.80;56.70
8888;DHT22;4480;52.370;9.748;2023-07-13T09:38:17;22.80;56.40
8888;DHT22;4480;52.370;9.748;2023-07-13T09:40:53;23.10;56.40
8888;DHT22;4480;52.370;9.748;2023-07-13T09:43:24;23.60;55.30
8888;DHT22;4480;52.370;9.748;2023-07-13T09:45:55;23.80;54.50
8888;DHT22;4480;52.370;9.748;2023-07-13T09:48:23;23.70;53.80
8888;DHT22;4480;52.370;9.748;2023-07-13T09:50:55;23.80;53.70
8888;DHT22;4480;52.370;9.748;2023-07-13T09:53:22;24.00;53.50
8888;DHT22;4480;52.370;9.748;2023-07-13T09:55:50;24.10;53.00
8888;DHT22;4480;52.370;9.748;2023-07-13T09:58:20;24.00;52.10
8888;DHT22;4480;52.370;9.748;2023-07-13T10:00:55;24.00;52.30
8888;DHT22;4480;52.370;9.748;2023-07-13T10:03:26;23.90;52.30
8888;DHT22;4480;52.370;9.748;2023-07-13T10:05:53;23.90;52.60
8888;DHT22;4480;52.370;9.748;2023-07-13T10:08:22;23.80;52.90
8888;DHT22;4480;52.370;9.748;2023-07-13T10:10:54;23.70;53.20
8888;DHT22;4480;52.370;9.748;2023-07-13T10:13:29;23.80;52.90
8888;DHT22;4480;52.370;9.748;2023-07-13T10:15:57;23.90;52.70
8888;DHT22;4480;52.370;9.748;2023-07-13T10:18:28;24.30;52.30
8888;DHT22;4480;52.370;9.748;2023-07-13T10:21:08;24.40;51.70
8888;DHT22;4480;52.370;9.748;2023-07-13T10:23:36;24.40;51.50
8888;DHT22;4480;52.370;9.748;2023-07-13T10:26:05;24.50;51.20
8888;DHT22;4480;52.370;9.748;2023-07-13T10:28:37;24.60;51.20
8888;DHT22;4480;52.370;9.748;2023-07-13T10:31:10;24.90;50.80
8888;DHT22;4480;52.370;9.748;2023-07-13T10:33:40;24.80;49.80
8888;DHT22;4480;52.370;9.748;2023-07-13T10:36:13;24.50;49.70
8888;DHT22;4480;52.370;9.748;2023-07-13T10:38:42;24.50;50.10
8888;DHT22;4480;52.370;9.748;2023-07-13T10:41:11;24.60;49.80
8888;DHT22;4480;52.370;9.748;2023-07-13T10:43:43;24.60;49.60
8888;DHT22;4480;52.370;9.748;2023-07-13T10:46:14;24.60;49.20
8888;DHT22;4480;52.370;9.748;2023-07-13T10:48:46;24.50;49.30
8888;DHT22;4480;52.370;9.748;2023-07-13T10:51:17;24.40;49.40
8888;DHT22;4480;52.370;9.748;2023-07-13T10:53:47;24.50;49.40
8888;DHT22;4480;52.370;9.748;2023-07-13T10:56:23;24.70;49.00
8888;DHT22;4480;52.370;9.748;2023-07-13T10:59:02;24.60;48.70
8888;DHT22;4480;52.370;9.748;2023-07-13T11:01:40;24.50;48.50
8888;DHT22;4480;52.370;9.748;2023-07-13T11:04:12;24.30;48.30
8888;DHT22;4480;52.370;9.748;2023-07-13T11:06:41;24.10;48.70
8888;DHT22;4480;52.370;9.748;2023-07-13T11:09:31;24.00;48.90
8888;DHT22;4480;52.370;9.748;2023-07-13T11:11:59;23.90;49.10
8888;DHT22;4480;52.370;9.748;2023-07-13T11:14:30;23.90;49.10
8888;DHT22;4480;52.370;9.748;2023-07-13T11:16:57;24.00;49.10
8888;DHT22;4480;52.370;9.748;2023-07-13T11:19:40;24.10;48.90
8888;DHT22;4480;52.370;9.748;2023-07-13T11:22:16;24.10;48.90
8888;DHT22;4480;52.370;9.748;2023-07-13T11:24:57;24.10;48.90
8888;DHT22;4480;52.370;9.748;2023-07-13T11:27:50;24.30;49.00
8888;DHT22;4480;52.370;9.748;2023-07-13T11:30:25;24.70;48.80
8888;DHT22;4480;52.370;9.748;2023-07-13T11:33:19;25.00;48.00
8888;DHT22;4480;52.370;9.748;2023-07-13T11:36:02;25.20;47.00
8888;DHT22;4480;52.370;9.748;2023-07-13T11:38:32;25.30;46.40
8888;DHT22;4480;52.370;9.748;2023-07-13T11:41:04;25.40;46.30
8888;DHT22;4480;52.370;9.748;2023-07-13T11:43:33;25.50;46.20
8888;DHT22;4480;52.370;9.748;2023-07-13T11:46:12;25.50;45.10
8888;DHT22;4480;52.370;9.748;2023-07-13T11:48:39;25.50;44.60
8888;DHT22;4480;52.370;9.748;2023-07-13T11:51:16;25.50;44.60
8888;DHT22;4480;52.370;9.748;2023-07-13T11:53:46;25.50;44.80
8888;DHT22;4480;52.370;9.748;2023-07-13T11:56:14;25.50;45.00
8888;DHT22;4480;52.370;9.748;2023-07-13T11:58:41;25.60;44.60
8888;DHT22;4480;52.370;9.748;2023-07-13T12:01:16;25.90;44.20
8888;DHT22;4480;52.370;9.748;2023-07-13T12:03:45;26.50;43.60
8888;DHT22;4480;52.370;9.748;2023-07-13T12:06:24;27.20;42.10
8888;DHT22;4480;52.370;9.748;2023-07-13T12:08:51;27.20;40.90
8888;DHT22;4480;52.370;9.748;2023-07-13T12:11:18;26.60;40.90
8888;DHT22;4480;52.370;9.748;2023-07-13T12:13:46;26.10;41.60
8888;DHT22;4480;52.370;9.748;2023-07-13T12:16:16;26.20;42.20
8888;DHT22;4480;52.370;9.748;2023-07-13T12:18:44;27.00;41.30
8888;DHT22;4480;52.370;9.748;2023-07-13T12:21:17;27.50;40.50
8888;DHT22;4480;52.370;9.748;2023-07-13T12:23:48;27.70;39.70
8888;DHT22;4480;52.370;9.748;2023-07-13T12:26:17;27.80;39.80
8888;DHT22;4480;52.370;9.748;2023-07-13T12:28:47;27.70;40.10
8888;DHT22;4480;52.370;9.748;2023-07-13T12:31:26;27.50;40.30
8888;DHT22;4480;52.370;9.748;2023-07-13T12:33:58;27.50;40.60
8888;DHT22;4480;52.370;9.748;2023-07-13T12:36:25;27.40;41.20
8888;DHT22;4480;52.370;9.748;2023-07-13T12:38:54;27.90;40.40
8888;DHT22;4480;52.370;9.748;2023-07-13T12:41:20;28.30;38.80
8888;DHT22;4480;52.370;9.748;2023-07-13T12:43:48;28.20;38.30
8888;DHT22;4480;52.370;9.748;2023-07-13T12:46:18;27.70;38.80
8888;DHT22;4480;52.370;9.748;2023-07-13T12:48:49;27.20;39.40
8888;DHT22;4480;52.370;9.748;2023-07-13T12:51:16;26.80;39.90
8888;DHT22;4480;52.370;9.748;2023-07-13T12:53:47;26.50;40.60
8888;DHT22;4480;52.370;9.748;2023-07-13T12:56:19;26.20;41.50
8888;DHT22;4480;52.370;9.748;2023-07-13T12:58:49;25.90;42.40
8888;DHT22;4480;52.370;9.748;2023-07-13T13:01:21;25.80;43.80
8888;DHT22;4480;52.370;9.748;2023-07-13T13:03:50;25.60;43.70
8888;DHT22;4480;52.370;9.748;2023-07-13T13:06:23;25.40;44.30
8888;DHT22;4480;52.370;9.748;2023-07-13T13:08:53;25.10;44.90
8888;DHT22;4480;52.370;9.748;2023-07-13T13:11:22;24.40;50.00
8888;DHT22;4480;52.370;9.748;2023-07-13T13:13:50;22.60;56.80
8888;DHT22;4480;52.370;9.748;2023-07-13T13:16:20;20.90;62.20
8888;DHT22;4480;52.370;9.748;2023-07-13T13:18:47;20.00;67.30
8888;DHT22;4480;52.370;9.748;2023-07-13T13:21:15;19.80;74.40
8888;DHT22;4480;52.370;9.748;2023-07-13T13:23:42;19.70;82.30
8888;DHT22;4480;52.370;9.748;2023-07-13T13:26:11;19.80;88.90
8888;DHT22;4480;52.370;9.748;2023-07-13T13:28:40;20.00;90.80
8888;DHT22;4480;52.370;9.748;2023-07-13T13:31:08;20.10;92.00
8888;DHT22;4480;52.370;9.748;2023-07-13T13:33:39;20.30;93.00
8888;DHT22;4480;52.370;9.748;2023-07-13T13:36:14;20.50;93.30
8888;DHT22;4480;52.370;9.748;2023-07-13T13:38:42;20.60;93.70
8888;DHT22;4480;52.370;9.748;2023-07-13T13:41:10;20.60;93.50
8888;DHT22;4480;52.370;9.748;2023-07-13T13:43:40;20.40;93.50
8888;DHT22;4480;52.370;9.748;2023-07-13T13:46:14;20.10;93.50
8888;DHT22;4480;52.370;9.748;2023-07-13T13:48:41;19.60;92.40
8888;DHT22;4480;52.370;9.748;2023-07-13T13:51:14;18.80;95.70
8888;DHT22;4480;52.370;9.748;2023-07-13T13:53:41;18.20;99.70
8888;DHT22;4480;52.370;9.748;2023-07-13T13:56:09;17.70;99.90
8888;DHT22;4480;52.370;9.748;2023-07-13T13:58:35;17.60;99.90
8888;DHT22;4480;52.370;9.748;2023-07-13T14:01:04;17.50;99.90
8888;DHT22;4480;52.370;9.748;2023-07-13T14:03:33;17.50;99.90
8888;DHT22;4480;52.370;9.748;2023-07-13T14:06:00;17.70;99.90
8888;DHT22;4480;52.370;9.748;2023-07-13T14:08:27;17.80;99.90
8888;DHT22;4480;52.370;9.748;2023-07-13T14:10:56;18.00;99.90
8888;DHT22;4480;52.370;9.748;2023-07-13T14:13:26;18.10;99.90
8888;DHT22;4480;52.370;9.748;2023-07-13T14:15:54;18.20;99.90
8888;DHT22;4480;52.370;9.748;2023-07-13T14:18:22;18.30;99.90
8888;DHT22;4480;52.370;9.748;2023-07-13T14:20:49;18.50;99.90
8888;DHT22;4480;52.370;9.748;2023-07-13T14:23:18;18.70;99.90
8888;DHT22;4480;52.370;9.748;2023-07-13T14:25:45;18.80;99.90
8888;DHT22;4480;52.370;9.748;2023-07-13T14:28:31;19.00;99.90
8888;DHT22;4480;52.370;9.748;2023-07-13T14:30:58;19.30;99.90
8888;DHT22;4480;52.370;9.748;2023-07-13T14:33:26;19.50;99.90
8888;DHT22;4480;52.370;9.748;2023-07-13T14:35:53;19.70;99.90
8888;DHT22;4480;52.370;9.748;2023-07-13T14:38:20;19.70;99.90
8888;DHT22;4480;52.370;9.748;2023-07-13T14:40:47;19.80;99.90
8888;DHT22;4480;52.370;9.748;2023-07-13T14:43:16;19.80;99.80
8888;DHT22;4480;52.370;9.748;2023-07-13T14:45:44;19.80;98.70
8888;DHT22;4480;52.370;9.748;2023-07-13T14:48:17;19.70;97.40
8888;DHT22;4480;52.370;9.748;2023-07-13T14:50:47;19.50;97.40
8888;DHT22;4480;52.370;9.748;2023-07-13T14:53:14;19.00;98.60
8888;DHT22;4480;52.370;9.748;2023-07-13T14:55:40;18.60;99.90
8888;DHT22;4480;52.370;9.748;2023-07-13T14:58:08;18.30;99.90
8888;DHT22;4480;52.370;9.748;2023-07-13T15:00:35;18.10;99.90
8888;DHT22;4480;52.370;9.748;2023-07-13T15:03:04;17.90;99.90
8888;DHT22;4480;52.370;9.748;2023-07-13T15:05:32;17.80;99.90
8888;DHT22;4480;52.370;9.748;2023-07-13T15:08:02;17.60;99.90
8888;DHT22;4480;52.370;9.748;2023-07-13T15:10:31;17.40;99.90
8888;DHT22;4480;52.370;9.748;2023-07-13T15:12:59;17.30;99.90
8888;DHT22;4480;52.370;9.748;2023-07-13T15:15:28;17.20;99.90
8888;DHT22;4480;52.370;9.748;2023-07-13T15:17:56;17.20;99.90
8888;DHT22;4480;52.370;9.748;2023-07-13T15:20:27;17.20;99.90
8888;DHT22;4480;52.370;9.748;2023-07-13T15:22:54;17.10;99.90
8888;DHT22;4480;52.370;9.748;2023-07-13T15:25:24;17.00;99.90
8888;DHT22;4480;52.370;9.748;2023-07-13T15:27:52;17.00;99.90
8888;DHT22;4480;52.370;9.748;2023-07-13T15:30:19;17.00;99.90
8888;DHT22;4480;52.370;9.748;2023-07-13T15:32:46;17.00;99.90
8888;DHT22;4480;52.370;9.748;2023-07-13T15:35:14;17.00;99.90
8888;DHT22;4480;52.370;9.748;2023-07-13T15:37:42;17.10;99.90
8888;DHT22;4480;52.370;9.748;2023-07-13T15:40:10;17.20;99.90
8888;DHT22;4480;52.370;9.748;2023-07-13T15:42:40;17.30;99.90
8888;DHT22;4480;52.370;9.748;2023-07-13T15:45:25;17.30;99.90
8888;DHT22;4480;52.370;9.748;2023-07-13T15:47:52;17.30;99.90
8888;DHT22;4480;52.370;9.748;2023-07-13T15:50:20;17.30;99.90
8888;DHT22;4480;52.370;9.748;2023-07-13T15:52:49;17.40;99.90
8888;DHT22;4480;52.370;9.748;2023-07-13T15:55:17;17.50;99.90
8888;DHT22;4480;52.370;9.748;2023-07-13T15:57:48;17.50;99.90
8888;DHT22;4480;52.370;9.748;2023-07-13T16:00:19;17.60;99.90
8888;DHT22;4480;52.370;9.748;2023-07-13T16:02:47;17.70;99.90
8888;DHT22;4480;52.370;9.748;2023-07-13T16:05:14;17.80;99.90
8888;DHT22;4480;52.370;9.748;2023-07-13T16:07:42;17.90;99.90
8888;DHT22;4480;52.370;9.748;2023-07-13T16:10:13;18.00;99.90
8888;DHT22;4480;52.370;9.748;2023-07-13T16:12:40;18.00;99.90
8888;DHT22;4480;52.370;9.748;2023-07-13T16:15:15;18.10;99.90